Terminal Aerodrome Forecast
Issued by NWS Pocatello, ID

Home | Current Version | Previous Version | Text Only | Print | Product List | Glossary On
Versions: 1 2 3 4 5 6 7 8 9 10 11 12 13 14 15 16 17 18 19 20
269
FTUS45 KPIH 142323
TAFIDA
TAF
KIDA 142323Z 1500/1524 VRB04KT 1 1/2SM BR OVC003
     FM150700 VRB03KT 1/2SM FZFG OVC002
     FM151700 VRB05KT 3SM BR SCT003 OVC007=

USA.gov is the U.S. government's official web portal to all federal, state and local government web resources and services.